Terminal Aerodrome Forecast
Issued by NWS

Home | Current Version | Previous Version | Text Only | Print | Product List | Glossary On
Versions: 1 2 3 4 5 6 7 8 9 10 11 12 13 14
357
FTPA31 PHFO 181728
TAFHJR
TAF
PHJR 181728Z 1818/1918 05004KT P6SM FEW025 SCT060
     FM182100 18007KT P6SM FEW030 BKN045
     FM190500 04004KT P6SM VCSH SCT025 BKN040=

USA.gov is the U.S. government's official web portal to all federal, state and local government web resources and services.